createdAt,value
2018-06-29T00:07:10.721Z,4
2018-06-29T00:17:10.574Z,4
2018-06-29T00:27:10.507Z,3
2018-06-29T00:37:10.504Z,4
2018-06-29T00:47:10.568Z,3
2018-06-29T00:57:10.600Z,3
2018-06-29T01:07:10.644Z,4
2018-06-29T01:17:10.578Z,4
2018-06-29T01:27:10.533Z,4
2018-06-29T01:37:10.621Z,3
2018-06-29T01:47:10.667Z,4
2018-06-29T01:57:10.632Z,4
2018-06-29T02:07:10.610Z,4
2018-06-29T02:17:10.681Z,4
2018-06-29T02:27:10.658Z,4
2018-06-29T02:37:10.727Z,5
2018-06-29T02:47:10.680Z,4
2018-06-29T02:57:10.681Z,3
2018-06-29T03:07:10.678Z,3
2018-06-29T03:17:10.764Z,4
2018-06-29T03:27:10.704Z,5
2018-06-29T03:37:10.780Z,5
2018-06-29T03:47:10.670Z,6
2018-06-29T03:57:10.747Z,5
2018-06-29T04:07:10.767Z,5
2018-06-29T04:17:10.851Z,4
2018-06-29T04:27:10.842Z,5
2018-06-29T04:37:10.728Z,5
2018-06-29T04:47:10.793Z,6
2018-06-29T04:57:10.799Z,7
2018-06-29T05:07:10.813Z,7
2018-06-29T05:17:10.921Z,8
2018-06-29T05:27:10.946Z,7
2018-06-29T05:37:10.944Z,12
2018-06-29T05:47:10.883Z,9
2018-06-29T05:57:10.786Z,7
2018-06-29T06:07:10.754Z,6
2018-06-29T06:17:10.790Z,6
2018-06-29T06:27:10.882Z,5
2018-06-29T06:37:10.909Z,5
2018-06-29T06:47:10.774Z,6
2018-06-29T06:57:10.836Z,5
2018-06-29T07:07:10.823Z,6
2018-06-29T07:17:10.815Z,4
2018-06-29T07:27:10.819Z,4
2018-06-29T07:37:10.989Z,4
2018-06-29T07:47:11.159Z,3
2018-06-29T07:57:11.794Z,3
2018-06-29T08:07:10.809Z,3
2018-06-29T08:17:11.461Z,4
2018-06-29T08:27:11.310Z,3
2018-06-29T08:37:10.833Z,4
2018-06-29T08:47:10.954Z,3
2018-06-29T08:57:11.063Z,1
2018-06-29T09:07:10.931Z,3
2018-06-29T09:17:10.868Z,2
2018-06-29T09:27:11.193Z,2
2018-06-29T09:37:10.854Z,3
2018-06-29T09:47:10.907Z,3
2018-06-29T09:57:10.927Z,4
2018-06-29T10:07:10.887Z,2
2018-06-29T10:17:11.523Z,2
2018-06-29T10:27:10.924Z,3
2018-06-29T10:37:10.896Z,2
2018-06-29T10:47:10.972Z,3
2018-06-29T10:57:10.985Z,3
2018-06-29T11:07:11.020Z,4
2018-06-29T11:17:10.952Z,4
2018-06-29T11:27:10.966Z,3
2018-06-29T11:37:11.030Z,4
2018-06-29T11:47:11.330Z,4
2018-06-29T12:07:27.808Z,3
2018-06-29T12:17:10.891Z,4
2018-06-29T12:27:24.222Z,2
2018-06-29T12:37:12.059Z,3
2018-06-29T12:47:10.956Z,3
2018-06-29T12:57:11.004Z,2
2018-06-29T13:07:11.246Z,1
2018-06-29T13:17:11.081Z,3
2018-06-29T13:27:11.181Z,3
2018-06-29T13:37:11.010Z,2
2018-06-29T13:47:10.959Z,1
2018-06-29T13:57:11.023Z,2
2018-06-29T14:07:10.945Z,2
2018-06-29T14:17:10.980Z,2
2018-06-29T14:27:10.965Z,2
2018-06-29T14:37:11.100Z,3
2018-06-29T14:47:11.984Z,2
2018-06-29T14:57:10.995Z,2
2018-06-29T15:07:10.983Z,2
2018-06-29T15:17:11.222Z,2
2018-06-29T15:27:11.537Z,3
2018-06-29T15:37:38.890Z,3
2018-06-29T15:47:30.934Z,3
2018-06-29T15:57:11.888Z,4
2018-06-29T16:07:13.156Z,4
2018-06-29T16:17:11.276Z,4
2018-06-29T16:27:11.804Z,5
2018-06-29T16:37:12.238Z,4
2018-06-29T16:47:11.132Z,5
2018-06-29T16:57:11.034Z,5
2018-06-29T17:07:11.094Z,5
2018-06-29T17:17:11.095Z,4
2018-06-29T17:27:11.193Z,4
2018-06-29T17:37:12.089Z,5
2018-06-29T17:47:11.149Z,7
2018-06-29T17:57:11.051Z,6
2018-06-29T18:07:11.172Z,7
2018-06-29T18:17:11.760Z,6
2018-06-29T18:27:12.024Z,8
2018-06-29T18:37:11.523Z,7
2018-06-29T18:47:44.122Z,7
2018-06-29T18:57:22.167Z,6
2018-06-29T19:07:16.943Z,7
2018-06-29T19:17:12.229Z,7
2018-06-29T19:27:13.644Z,6
2018-06-29T19:37:24.187Z,7
2018-06-29T19:47:26.111Z,7
2018-06-29T19:57:11.065Z,7
2018-06-29T20:07:14.418Z,7
2018-06-29T20:17:19.607Z,6
2018-06-29T20:27:14.645Z,7
2018-06-29T20:37:17.732Z,6
2018-06-29T20:47:16.326Z,9
2018-06-29T20:57:11.057Z,8
2018-06-29T21:07:11.332Z,8
2018-06-29T21:17:12.365Z,6
2018-06-29T21:27:11.023Z,15
2018-06-29T21:37:11.042Z,9
2018-06-29T21:47:11.278Z,9
2018-06-29T21:57:11.074Z,12
2018-06-29T22:07:11.279Z,14
2018-06-29T22:17:11.309Z,11
2018-06-29T22:27:12.544Z,14
2018-06-29T22:37:11.093Z,12
2018-06-29T22:47:11.234Z,11
2018-06-29T22:57:11.528Z,12
2018-06-29T23:07:11.375Z,15
2018-06-29T23:17:11.355Z,15
2018-06-29T23:27:11.097Z,13
2018-06-29T23:37:11.001Z,15
2018-06-29T23:47:11.472Z,18
2018-06-29T23:57:11.381Z,19
